Impacts TAF Board
For situational awareness. Not to be used for flight planning purposes.
IDs:

KLCH - Lake Charles Rgnl, LA, US

Issued at 1403 UTC 23 Sep 2020
Updated at 1716 UTC 23 Sep 2020
Potential Impact None Slight Moderate High
Time1654Z 23/18Z 23/19Z 23/20Z 23/21Z 23/22Z 23/23Z 24/00Z 24/01Z 24/02Z 24/03Z 24/04Z 24/05Z 24/06Z>>
Type OBS PRVL PRVL PRVL PRVL PRVL PRVL PRVL PRVL PRVL PRVL PRVL PRVL PRVL
VIS 10 >6 >6 >6 >6 >6 >6 >6 >6 >6 >6 >6 >6 >6
CIG 13 15 15 15 10 10 10 10 10 15 15 15 15 15
Cover OVC OVC OVC OVC OVC OVC OVC OVC OVC OVC OVC OVC OVC OVC
FltCat MVFR MVFR MVFR MVFR MVFR MVFR MVFR MVFR MVFR MVFR MVFR MVFR MVFR MVFR
WX -- VCSH VCSH VCSH VCSH VCSH VCSH VCSH VCSH -- -- -- -- --
WDir 200 230 230 230 270 270 270 270 270 330 330 330 330 330
WSpd 12 10 10 10 9 9 9 9 9 8 8 8 8 8
WGst 23 -- -- -- -- -- -- -- -- -- -- -- -- --
R05/23
XWnd -6 -0 -0 -0 6 6 6 6 6 8 8 8 8 8
XGst -12 -- -- -- -- -- -- -- -- -- -- -- -- --
HWnd -10 -10 -10 -10 -7 -7 -7 -7 -7 1 1 1 1 1
HGst -20 -- -- -- -- -- -- -- -- -- -- -- -- --
R15/33
XWnd -8 -10 -10 -10 -8 -8 -8 -8 -8 -1 -1 -1 -1 -1
XGst -16 -- -- -- -- -- -- -- -- -- -- -- -- --
HWnd 8 3 3 3 -4 -4 -4 -4 -4 -8 -8 -8 -8 -8
HGst 16 -- -- -- -- -- -- -- -- -- -- -- -- --
Raw TAF
KLCH 231403Z 2314/2412 17007KT 5SM -SHRA VCTS SCT008 BKN020CB OVC070
  TEMPO 2314/2318 VRB14G22KT 1SM +SHRA OVC008
  FM231800 23010KT P6SM VCSH OVC015
  FM232100 27009KT P6SM VCSH OVC010
  FM240200 33008KT P6SM BKN015 OVC025


Raw METAR
KLCH 231654Z 20012G23KT 10SM BKN013 OVC024 26/24 A2975 RMK INFORMATION ECHO CURRENT
KLCH 231552Z 18010G18KT 9SM FEW010 BKN024 OVC042 25/25 A2997 RMK INFORMATION DELTA CURRENT, USING GPS RWY 15 APP

METAR Board
Radar Display
Forecast Discussion
For situational awareness. Not to be used for flight planning purposes.